createdAt,value
2022-12-01T00:00:55.101Z,42.72
2022-12-01T00:01:58.433Z,42.72
2022-12-01T00:03:01.658Z,42.76
2022-12-01T00:04:05.009Z,42.65
2022-12-01T00:05:08.658Z,42.66
2022-12-01T00:06:17.376Z,42.57
2022-12-01T00:07:20.522Z,42.54
2022-12-01T00:08:23.614Z,42.51
2022-12-01T00:09:44.836Z,42.53
2022-12-01T00:10:47.959Z,42.50
2022-12-01T00:11:51.084Z,42.52
2022-12-01T00:12:56.887Z,42.62
2022-12-01T00:14:00.118Z,42.61
2022-12-01T00:15:03.478Z,42.51
2022-12-01T00:16:12.639Z,42.49
2022-12-01T00:17:15.958Z,42.46
2022-12-01T00:18:19.382Z,42.48
2022-12-01T00:19:27.426Z,42.49
2022-12-01T00:20:32.362Z,42.42
2022-12-01T00:21:35.597Z,42.44
2022-12-01T00:22:40.474Z,42.39
2022-12-01T00:23:44.611Z,42.41
2022-12-01T00:24:47.920Z,42.52
2022-12-01T00:25:51.122Z,42.57
2022-12-01T00:26:54.480Z,42.37
2022-12-01T00:27:58.389Z,42.43
2022-12-01T00:29:01.548Z,42.34
2022-12-01T00:30:06.837Z,42.41
2022-12-01T00:31:11.504Z,42.35
2022-12-01T00:32:14.816Z,42.27
2022-12-01T00:33:18.099Z,42.21
2022-12-01T00:34:25.739Z,42.10
2022-12-01T00:35:29.183Z,42.08
2022-12-01T00:36:32.805Z,41.98
2022-12-01T00:37:36.568Z,42.03
2022-12-01T00:38:39.825Z,42.03
2022-12-01T00:39:42.983Z,42.05
2022-12-01T00:40:46.292Z,42.20
2022-12-01T00:41:49.509Z,42.11
2022-12-01T00:42:52.787Z,42.10
2022-12-01T00:43:55.974Z,42.13
2022-12-01T00:44:59.291Z,42.13
2022-12-01T00:46:03.039Z,42.16
2022-12-01T00:47:06.479Z,42.04
2022-12-01T00:48:09.807Z,42.02
2022-12-01T00:49:13.518Z,42.06
2022-12-01T00:50:16.620Z,41.96
2022-12-01T00:51:19.830Z,41.97
2022-12-01T00:52:23.022Z,41.99
2022-12-01T00:53:26.217Z,41.99
2022-12-01T00:54:31.217Z,42.06
2022-12-01T00:55:34.591Z,41.95
2022-12-01T00:56:37.762Z,42.05
2022-12-01T00:57:40.938Z,42.00
2022-12-01T00:58:44.127Z,41.95
2022-12-01T00:59:47.592Z,42.00
2022-12-01T01:00:59.911Z,42.04
2022-12-01T01:02:05.434Z,42.04
2022-12-01T01:03:08.685Z,42.00
2022-12-01T01:04:12.069Z,42.06
2022-12-01T01:05:15.262Z,42.08
2022-12-01T01:06:18.471Z,42.10
2022-12-01T01:07:21.795Z,42.00
2022-12-01T01:08:24.937Z,42.07
2022-12-01T01:09:28.102Z,42.08
2022-12-01T01:10:31.574Z,42.07
2022-12-01T01:11:34.646Z,41.96
2022-12-01T01:12:37.879Z,41.94
2022-12-01T01:13:41.073Z,41.97
2022-12-01T01:14:44.261Z,41.86
2022-12-01T01:15:50.944Z,41.91
2022-12-01T01:16:55.678Z,41.83
2022-12-01T01:17:58.820Z,41.88
2022-12-01T01:19:01.973Z,41.88
2022-12-01T01:20:06.352Z,41.91
2022-12-01T01:21:12.620Z,41.83
2022-12-01T01:22:15.811Z,41.93
2022-12-01T01:23:18.978Z,41.89
2022-12-01T01:24:22.096Z,41.83
2022-12-01T01:25:25.545Z,41.87
2022-12-01T01:26:31.019Z,41.89
2022-12-01T01:27:34.577Z,41.95
2022-12-01T01:28:38.288Z,41.83
2022-12-01T01:29:41.957Z,41.83
2022-12-01T01:30:45.464Z,41.91
2022-12-01T01:31:48.640Z,41.79
2022-12-01T01:32:51.829Z,41.82
2022-12-01T01:33:56.189Z,41.88
2022-12-01T01:34:59.516Z,41.81
2022-12-01T01:36:03.654Z,41.83
2022-12-01T01:37:06.797Z,41.88
2022-12-01T01:38:10.977Z,41.77
2022-12-01T01:39:14.065Z,41.80
2022-12-01T01:40:18.736Z,41.84
2022-12-01T01:41:22.835Z,41.88
2022-12-01T01:42:26.047Z,41.84
2022-12-01T01:43:41.492Z,41.86
2022-12-01T01:44:51.086Z,41.93
2022-12-01T01:45:54.747Z,41.89
2022-12-01T01:46:58.104Z,41.81
2022-12-01T01:48:03.097Z,41.86
2022-12-01T01:49:09.426Z,41.76
2022-12-01T01:50:15.516Z,41.78
2022-12-01T01:51:28.301Z,41.79
2022-12-01T01:52:32.987Z,41.80
2022-12-01T01:53:36.216Z,41.75
2022-12-01T01:54:45.742Z,41.81
2022-12-01T01:55:49.459Z,41.75
2022-12-01T01:56:53.860Z,41.72
2022-12-01T01:57:57.173Z,41.75
2022-12-01T01:59:00.589Z,41.73
2022-12-01T02:00:07.447Z,41.76
2022-12-01T02:01:12.545Z,41.78
2022-12-01T02:02:15.905Z,41.76
2022-12-01T02:03:20.142Z,41.72
2022-12-01T02:04:25.112Z,41.82
2022-12-01T02:05:31.844Z,41.80
2022-12-01T02:06:35.281Z,41.72
2022-12-01T02:07:40.289Z,41.74
2022-12-01T02:08:43.527Z,41.65
2022-12-01T02:09:47.017Z,41.63
2022-12-01T02:11:11.946Z,41.60
2022-12-01T02:12:33.726Z,41.71
2022-12-01T02:13:40.505Z,41.61
2022-12-01T02:15:02.279Z,41.61
2022-12-01T02:16:21.354Z,41.62
2022-12-01T02:17:38.814Z,41.62
2022-12-01T02:19:14.029Z,41.61
2022-12-01T02:20:23.541Z,41.60
2022-12-01T02:21:45.413Z,41.64
2022-12-01T02:23:00.779Z,41.62
2022-12-01T02:24:40.667Z,41.59
2022-12-01T02:26:05.362Z,41.65
2022-12-01T02:28:32.042Z,41.76
2022-12-01T02:29:59.602Z,41.63
2022-12-01T02:31:24.222Z,41.74
2022-12-01T02:32:39.793Z,41.75
2022-12-01T02:33:49.732Z,41.60
2022-12-01T02:34:59.707Z,41.59
2022-12-01T02:36:06.402Z,41.61
2022-12-01T02:37:19.040Z,41.60
2022-12-01T02:38:25.672Z,41.49
2022-12-01T02:39:44.484Z,41.51
2022-12-01T02:40:51.145Z,41.47
2022-12-01T02:41:57.921Z,41.40
2022-12-01T02:43:07.409Z,41.44
2022-12-01T02:44:20.175Z,41.53
2022-12-01T02:45:32.554Z,41.48
2022-12-01T02:47:52.933Z,41.36
2022-12-01T02:48:59.398Z,41.44
2022-12-01T02:50:04.507Z,41.34
2022-12-01T02:51:11.304Z,41.46
2022-12-01T02:52:15.685Z,41.35
2022-12-01T02:53:19.414Z,41.29
2022-12-01T02:54:25.084Z,41.32
2022-12-01T02:55:28.260Z,41.23
2022-12-01T02:56:31.670Z,41.20
2022-12-01T02:57:34.754Z,41.20
2022-12-01T02:58:37.976Z,41.29
2022-12-01T02:59:42.862Z,41.34
2022-12-01T03:01:06.014Z,41.34
2022-12-01T03:02:12.838Z,41.28
2022-12-01T03:03:22.412Z,41.23
2022-12-01T03:04:31.803Z,41.24
2022-12-01T03:05:44.572Z,41.23
2022-12-01T03:07:15.668Z,41.17
2022-12-01T03:08:51.200Z,41.09
2022-12-01T03:10:04.003Z,41.20
2022-12-01T03:11:07.293Z,41.21
2022-12-01T03:12:13.896Z,41.16
2022-12-01T03:13:39.965Z,41.19
2022-12-01T03:14:46.793Z,41.20
2022-12-01T03:15:56.522Z,41.24
2022-12-01T03:17:03.218Z,41.26
2022-12-01T03:18:15.235Z,41.21
2022-12-01T03:19:33.479Z,41.20
2022-12-01T03:20:46.707Z,41.19
2022-12-01T03:22:09.857Z,41.17
2022-12-01T03:23:16.466Z,41.07
2022-12-01T03:24:23.129Z,41.03
2022-12-01T03:25:29.771Z,41.02
2022-12-01T03:26:35.998Z,41.01
2022-12-01T03:28:00.631Z,41.01
2022-12-01T03:28:50.989Z,41.01
2022-12-01T03:29:57.572Z,41.06
2022-12-01T03:31:03.908Z,41.02
2022-12-01T03:33:27.446Z,41.04
2022-12-01T03:34:34.203Z,41.02
2022-12-01T03:35:46.706Z,40.91
2022-12-01T03:36:56.706Z,40.96
2022-12-01T03:38:06.437Z,40.91
2022-12-01T03:39:14.281Z,40.90
2022-12-01T03:40:20.979Z,40.83
2022-12-01T03:41:27.707Z,40.90
2022-12-01T03:42:37.197Z,40.81
2022-12-01T03:43:43.866Z,40.80
2022-12-01T03:44:50.359Z,40.85
2022-12-01T03:46:00.367Z,40.77
2022-12-01T03:47:07.221Z,40.76
2022-12-01T03:48:10.398Z,40.72
2022-12-01T03:49:16.695Z,40.68
2022-12-01T03:50:20.243Z,40.56
2022-12-01T03:51:35.451Z,40.63
2022-12-01T03:52:51.309Z,40.61
2022-12-01T03:54:00.941Z,40.67
2022-12-01T03:56:30.584Z,40.60
2022-12-01T03:57:55.357Z,40.54
2022-12-01T03:59:02.042Z,40.32
2022-12-01T04:00:07.804Z,40.43
2022-12-01T04:01:12.990Z,40.37
2022-12-01T04:02:16.933Z,40.37
2022-12-01T04:03:23.686Z,40.45
2022-12-01T04:04:26.959Z,40.38
2022-12-01T04:05:32.005Z,40.46
2022-12-01T04:06:35.609Z,40.45
2022-12-01T04:07:39.785Z,40.36
2022-12-01T04:08:42.993Z,40.40
2022-12-01T04:09:46.426Z,40.27
2022-12-01T04:10:49.628Z,40.22
2022-12-01T04:12:10.901Z,40.33
2022-12-01T04:13:18.824Z,40.30
2022-12-01T04:14:22.143Z,40.15
2022-12-01T04:15:26.568Z,40.13
2022-12-01T04:16:29.914Z,40.16
2022-12-01T04:17:33.573Z,40.13
2022-12-01T04:18:36.665Z,40.22
2022-12-01T04:19:39.756Z,40.12
2022-12-01T04:20:43.077Z,40.19
2022-12-01T04:21:46.314Z,40.07
2022-12-01T04:22:49.476Z,40.09
2022-12-01T04:24:01.365Z,40.08
2022-12-01T04:25:06.052Z,40.13
2022-12-01T04:26:15.453Z,40.15
2022-12-01T04:27:14.185Z,40.19
2022-12-01T04:28:17.338Z,40.12
2022-12-01T04:29:20.442Z,40.13
2022-12-01T04:30:23.721Z,40.05
2022-12-01T04:31:26.873Z,40.03
2022-12-01T04:32:30.109Z,39.94
2022-12-01T04:33:33.172Z,39.98
2022-12-01T04:34:36.406Z,39.89
2022-12-01T04:35:39.515Z,39.88
2022-12-01T04:36:42.833Z,39.87
2022-12-01T04:37:45.939Z,39.88
2022-12-01T04:38:49.360Z,39.85
2022-12-01T04:39:52.755Z,39.85
2022-12-01T04:40:56.007Z,39.82
2022-12-01T04:41:59.321Z,39.82
2022-12-01T04:43:02.513Z,39.71
2022-12-01T04:44:05.807Z,39.61
2022-12-01T04:45:10.023Z,39.58
2022-12-01T04:46:14.464Z,39.64
2022-12-01T04:47:17.712Z,39.60
2022-12-01T04:48:21.640Z,39.56
2022-12-01T04:49:24.956Z,39.63
2022-12-01T04:50:28.234Z,39.56
2022-12-01T04:51:31.721Z,39.56
2022-12-01T04:52:37.198Z,39.49
2022-12-01T04:53:40.380Z,39.50
2022-12-01T04:54:43.610Z,39.45
2022-12-01T04:55:46.859Z,39.54
2022-12-01T04:56:49.943Z,39.52
2022-12-01T04:57:53.069Z,39.49
2022-12-01T04:58:56.178Z,39.56
2022-12-01T04:59:59.368Z,39.45
2022-12-01T05:01:05.448Z,39.36
2022-12-01T05:02:08.715Z,39.39
2022-12-01T05:03:15.075Z,39.36
2022-12-01T05:04:16.844Z,39.39
2022-12-01T05:05:20.105Z,39.45
2022-12-01T05:06:26.018Z,39.44
2022-12-01T05:07:29.313Z,39.43
2022-12-01T05:08:33.677Z,39.27
2022-12-01T05:09:36.911Z,39.35
2022-12-01T05:10:40.256Z,39.27
2022-12-01T05:11:43.368Z,39.25
2022-12-01T05:12:46.598Z,39.29
2022-12-01T05:13:49.890Z,39.23
2022-12-01T05:14:53.077Z,39.31
2022-12-01T05:16:05.012Z,39.27
2022-12-01T05:17:08.307Z,39.25
2022-12-01T05:18:11.558Z,39.11
2022-12-01T05:19:32.929Z,39.10
2022-12-01T05:20:54.757Z,39.10
2022-12-01T05:21:58.073Z,39.07
2022-12-01T05:23:06.113Z,39.10
2022-12-01T05:24:07.320Z,39.10
2022-12-01T05:25:10.539Z,39.08
2022-12-01T05:26:13.730Z,38.97
2022-12-01T05:27:16.978Z,39.01
2022-12-01T05:28:21.177Z,39.02
2022-12-01T05:29:24.292Z,38.80
2022-12-01T05:30:28.942Z,38.74
2022-12-01T05:31:32.311Z,38.72
2022-12-01T05:32:35.605Z,38.75
2022-12-01T05:33:38.705Z,38.72
2022-12-01T05:34:41.905Z,38.64
2022-12-01T05:35:45.102Z,38.69
2022-12-01T05:36:48.298Z,38.66
2022-12-01T05:37:51.449Z,38.64
2022-12-01T05:38:54.842Z,38.50
2022-12-01T05:39:57.996Z,38.56
2022-12-01T05:41:01.263Z,38.46
2022-12-01T05:42:04.569Z,38.41
2022-12-01T05:43:07.896Z,38.51
2022-12-01T05:44:11.108Z,38.40
2022-12-01T05:45:14.494Z,38.35
2022-12-01T05:46:17.863Z,38.34
2022-12-01T05:47:21.066Z,38.29
2022-12-01T05:48:25.169Z,38.30
2022-12-01T05:49:28.413Z,38.30
2022-12-01T05:50:31.686Z,38.28
2022-12-01T05:51:34.875Z,38.13
2022-12-01T05:52:38.052Z,38.06
2022-12-01T05:53:41.545Z,38.03
2022-12-01T05:54:44.624Z,38.04
2022-12-01T05:55:53.582Z,37.92
2022-12-01T05:56:56.756Z,37.87
2022-12-01T05:58:00.234Z,37.86
2022-12-01T05:59:03.432Z,37.81
2022-12-01T06:00:07.825Z,37.74
2022-12-01T06:01:17.353Z,37.73
2022-12-01T06:02:20.509Z,37.68
2022-12-01T06:03:23.648Z,37.64
2022-12-01T06:04:26.786Z,37.62
2022-12-01T06:05:30.112Z,37.61
2022-12-01T06:06:33.243Z,37.56
2022-12-01T06:07:36.539Z,37.59
2022-12-01T06:08:39.767Z,37.49
2022-12-01T06:09:44.641Z,37.47
2022-12-01T06:10:47.746Z,37.47
2022-12-01T06:11:52.626Z,37.40
2022-12-01T06:12:55.847Z,37.45
2022-12-01T06:13:58.990Z,37.33
2022-12-01T06:15:02.339Z,37.34
2022-12-01T06:16:06.651Z,37.37
2022-12-01T06:17:10.279Z,37.33
2022-12-01T06:18:13.454Z,37.35
2022-12-01T06:19:16.577Z,37.38
2022-12-01T06:20:19.835Z,37.31
2022-12-01T06:21:23.043Z,37.24
2022-12-01T06:22:26.281Z,37.20
2022-12-01T06:23:30.697Z,37.18
2022-12-01T06:24:34.093Z,37.10
2022-12-01T06:25:37.299Z,37.10
2022-12-01T06:26:40.514Z,37.12
2022-12-01T06:27:43.838Z,37.17
2022-12-01T06:28:47.178Z,37.12
2022-12-01T06:29:50.700Z,37.07
2022-12-01T06:30:57.952Z,36.89
2022-12-01T06:31:59.360Z,36.91
2022-12-01T06:33:02.498Z,36.82
2022-12-01T06:34:05.931Z,36.69
2022-12-01T06:35:09.366Z,36.66
2022-12-01T06:36:12.725Z,36.72
2022-12-01T06:37:16.257Z,36.74
2022-12-01T06:38:19.375Z,36.67
2022-12-01T06:39:22.611Z,36.67
2022-12-01T06:40:25.804Z,36.60
2022-12-01T06:41:28.993Z,36.71
2022-12-01T06:42:32.334Z,36.69
2022-12-01T06:43:37.256Z,36.73
2022-12-01T06:44:40.367Z,36.60
2022-12-01T06:45:43.798Z,36.49
2022-12-01T06:46:47.159Z,36.48
2022-12-01T06:47:55.232Z,36.41
2022-12-01T06:48:58.506Z,36.29
2022-12-01T06:50:02.009Z,36.27
2022-12-01T06:51:05.484Z,36.22
2022-12-01T06:52:10.219Z,36.18
2022-12-01T06:53:13.446Z,36.19
2022-12-01T06:54:17.469Z,36.09
2022-12-01T06:55:20.656Z,36.09
2022-12-01T06:56:24.588Z,36.15
2022-12-01T06:57:27.902Z,35.99
2022-12-01T06:58:32.030Z,35.96
2022-12-01T06:59:35.497Z,35.95
2022-12-01T07:00:39.092Z,35.84
2022-12-01T07:01:42.671Z,35.83
2022-12-01T07:02:45.978Z,35.72
2022-12-01T07:03:49.734Z,35.62
2022-12-01T07:04:52.806Z,35.58
2022-12-01T07:05:58.439Z,35.52
2022-12-01T07:07:01.642Z,35.43
2022-12-01T07:08:06.281Z,35.34
2022-12-01T07:09:09.618Z,35.41
2022-12-01T07:10:14.127Z,35.32
2022-12-01T07:11:17.358Z,35.33
2022-12-01T07:12:20.480Z,35.30
2022-12-01T07:13:25.732Z,35.16
2022-12-01T07:14:30.316Z,35.09
2022-12-01T07:15:33.554Z,34.98
2022-12-01T07:16:36.767Z,34.87
2022-12-01T07:17:39.952Z,34.72
2022-12-01T07:18:44.647Z,34.72
2022-12-01T07:19:48.234Z,34.67
2022-12-01T07:20:51.764Z,34.62
2022-12-01T07:21:54.977Z,34.59
2022-12-01T07:22:58.047Z,34.50
2022-12-01T07:24:01.299Z,34.57
2022-12-01T07:25:04.826Z,34.52
2022-12-01T07:26:12.183Z,34.49
2022-12-01T07:27:15.389Z,34.38
2022-12-01T07:28:18.559Z,34.30
2022-12-01T07:29:21.741Z,34.30
2022-12-01T07:30:28.388Z,34.32
2022-12-01T07:31:30.007Z,34.26
2022-12-01T07:32:33.333Z,34.25
2022-12-01T07:33:36.936Z,34.34
2022-12-01T07:34:40.027Z,34.20
2022-12-01T07:35:43.423Z,34.17
2022-12-01T07:36:46.504Z,34.14
2022-12-01T07:37:55.212Z,34.17
2022-12-01T07:38:58.420Z,34.12
2022-12-01T07:40:01.513Z,34.11
2022-12-01T07:41:09.745Z,33.97
2022-12-01T07:42:12.905Z,33.97
2022-12-01T07:43:16.025Z,33.91
2022-12-01T07:44:19.233Z,33.94
2022-12-01T07:45:22.441Z,33.99
2022-12-01T07:46:27.266Z,33.83
2022-12-01T07:47:30.530Z,33.86
2022-12-01T07:48:34.294Z,33.69
2022-12-01T07:49:37.731Z,33.62
2022-12-01T07:50:41.119Z,33.62
2022-12-01T07:51:44.352Z,33.57
2022-12-01T07:52:50.909Z,33.48
2022-12-01T07:53:54.693Z,33.44
2022-12-01T07:54:57.889Z,33.31
2022-12-01T07:56:05.718Z,33.42
2022-12-01T07:57:06.589Z,33.34
2022-12-01T07:58:09.744Z,33.44
2022-12-01T07:59:12.905Z,33.44
2022-12-01T08:00:16.568Z,33.31
2022-12-01T08:01:22.146Z,33.34
2022-12-01T08:02:25.608Z,33.25
2022-12-01T08:03:28.798Z,33.13
2022-12-01T08:04:32.021Z,33.11
2022-12-01T08:05:35.334Z,33.07
2022-12-01T08:06:38.845Z,33.04
2022-12-01T10:54:59.310Z,30.65
2022-12-01T10:56:11.910Z,30.51
2022-12-01T10:57:17.139Z,30.40
2022-12-01T10:58:20.279Z,30.47
2022-12-01T10:59:26.947Z,30.48
2022-12-01T11:00:58.425Z,30.42
2022-12-01T11:01:45.152Z,30.44
2022-12-01T11:02:48.658Z,30.24
2022-12-01T11:04:01.730Z,30.19
2022-12-01T11:05:08.041Z,30.14
2022-12-01T11:06:11.222Z,30.06
2022-12-01T11:08:37.960Z,30.01
2022-12-01T11:09:41.406Z,29.83
2022-12-01T11:10:48.039Z,29.77
2022-12-01T11:12:02.518Z,29.78
2022-12-01T11:13:28.015Z,29.71
2022-12-01T11:14:43.524Z,29.69
2022-12-01T11:15:58.624Z,29.63
2022-12-01T11:17:22.072Z,29.50
2022-12-01T11:18:39.025Z,29.46
2022-12-01T11:19:42.410Z,29.36
2022-12-01T11:20:45.880Z,29.40
2022-12-01T11:23:20.818Z,29.48
2022-12-01T11:24:42.278Z,29.44
2022-12-01T11:26:06.727Z,29.40
2022-12-01T11:27:16.679Z,29.31
2022-12-01T11:28:21.019Z,29.23
2022-12-01T11:29:36.701Z,29.19
2022-12-01T11:30:39.988Z,29.16
2022-12-01T11:31:49.768Z,29.08
2022-12-01T11:32:56.491Z,29.10
2022-12-01T11:33:59.866Z,29.17
2022-12-01T11:35:18.538Z,29.19
2022-12-01T11:36:31.014Z,29.15
2022-12-01T11:37:37.687Z,29.08
2022-12-01T11:38:41.026Z,29.04
2022-12-01T11:39:47.691Z,28.99
2022-12-01T11:40:56.902Z,28.95
2022-12-01T11:42:03.158Z,28.93
2022-12-01T11:43:06.904Z,28.89
2022-12-01T11:45:39.595Z,28.91
2022-12-01T11:46:50.421Z,28.92
2022-12-01T11:48:16.020Z,28.91
2022-12-01T11:49:25.537Z,28.85
2022-12-01T11:50:32.054Z,28.83
2022-12-01T11:51:38.648Z,28.87
2022-12-01T11:52:48.025Z,28.85
2022-12-01T11:54:11.478Z,28.79
2022-12-01T11:55:18.142Z,28.81
2022-12-01T11:56:28.234Z,28.87
2022-12-01T11:57:34.598Z,28.82
2022-12-01T11:58:36.876Z,28.81
2022-12-01T11:59:40.080Z,28.90
2022-12-01T12:00:49.355Z,28.79
2022-12-01T12:02:23.126Z,28.85
2022-12-01T12:04:47.414Z,28.71
2022-12-01T12:06:38.806Z,28.71
2022-12-01T12:07:36.020Z,28.69
2022-12-01T12:08:49.038Z,28.58
2022-12-01T12:10:14.035Z,28.64
2022-12-01T12:11:23.876Z,28.58
2022-12-01T12:12:46.982Z,28.71
2022-12-01T12:13:53.648Z,28.71
2022-12-01T12:15:03.318Z,28.78
2022-12-01T12:16:10.115Z,28.77
2022-12-01T12:17:44.015Z,28.77
2022-12-01T12:18:59.873Z,28.66
2022-12-01T12:20:18.782Z,28.68
2022-12-01T12:21:49.136Z,28.63
2022-12-01T12:23:13.294Z,28.66
2022-12-01T12:24:29.497Z,28.75
2022-12-01T12:25:38.848Z,28.68
2022-12-01T12:26:45.706Z,28.66
2022-12-01T12:27:55.474Z,28.66
2022-12-01T12:29:14.346Z,28.63
2022-12-01T12:30:21.268Z,28.57
2022-12-01T12:31:36.939Z,28.59
2022-12-01T12:33:06.284Z,28.55
2022-12-01T12:34:23.037Z,28.61
2022-12-01T12:35:29.722Z,28.52
2022-12-01T12:37:56.475Z,28.68
2022-12-01T12:39:13.598Z,28.64
2022-12-01T12:40:24.151Z,28.74
2022-12-01T12:41:45.493Z,28.68
2022-12-01T12:43:10.207Z,28.75
2022-12-01T12:44:36.772Z,28.80
2022-12-01T12:45:43.662Z,28.91
2022-12-01T12:47:02.638Z,28.87
2022-12-01T12:48:09.412Z,28.98
2022-12-01T12:49:20.485Z,28.93
2022-12-01T12:52:08.161Z,29.02
2022-12-01T12:53:25.603Z,29.00
2022-12-01T12:54:47.130Z,29.07
2022-12-01T12:55:53.928Z,29.08
2022-12-01T12:57:12.691Z,29.09
2022-12-01T12:58:22.163Z,29.18
2022-12-01T12:59:31.746Z,29.22
2022-12-01T13:00:37.954Z,29.18
2022-12-01T13:02:03.039Z,29.19
2022-12-01T13:03:18.788Z,29.12
2022-12-01T13:04:25.554Z,29.15
2022-12-01T13:05:48.892Z,29.23
2022-12-01T13:07:12.056Z,29.14
2022-12-01T13:08:30.602Z,29.19
2022-12-01T13:09:40.419Z,29.29
2022-12-01T13:10:59.274Z,29.29
2022-12-01T13:12:13.390Z,29.31
2022-12-01T13:13:28.661Z,29.32
2022-12-01T13:14:50.588Z,29.35
2022-12-01T13:15:56.409Z,29.36
2022-12-01T13:17:08.946Z,29.46
2022-12-01T13:18:18.693Z,29.46
2022-12-01T13:19:25.500Z,29.45
2022-12-01T13:20:29.783Z,29.41
2022-12-01T13:21:36.553Z,29.46
2022-12-01T13:23:45.189Z,29.54
2022-12-01T13:24:49.513Z,29.58
2022-12-01T13:25:55.594Z,29.60
2022-12-01T13:27:05.053Z,29.51
2022-12-01T13:28:20.667Z,29.56
2022-12-01T13:29:25.255Z,29.58
2022-12-01T13:30:28.628Z,29.68
2022-12-01T13:31:43.836Z,29.63
2022-12-01T13:32:48.116Z,29.70
2022-12-01T13:34:03.326Z,29.72
2022-12-01T13:35:26.715Z,29.71
2022-12-01T13:36:46.116Z,29.80
2022-12-01T13:37:38.372Z,29.80
2022-12-01T13:38:41.873Z,29.86
2022-12-01T13:39:45.078Z,29.84
2022-12-01T13:40:49.248Z,29.89
2022-12-01T13:42:10.597Z,29.93
2022-12-01T13:43:20.425Z,29.96
2022-12-01T13:44:27.328Z,30.10
2022-12-01T13:45:36.340Z,30.14
2022-12-01T13:46:46.339Z,30.11
2022-12-01T13:47:53.218Z,30.09
2022-12-01T13:48:59.048Z,30.25
2022-12-01T13:50:38.639Z,30.20
2022-12-01T13:52:17.380Z,30.29
2022-12-01T13:53:24.660Z,30.30
2022-12-01T13:54:29.752Z,30.39
2022-12-01T13:55:33.316Z,30.52
2022-12-01T13:56:41.079Z,30.51
2022-12-01T13:57:50.958Z,30.53
2022-12-01T13:58:54.802Z,30.56
2022-12-01T14:00:02.590Z,30.62
2022-12-01T14:01:23.325Z,30.64
2022-12-01T14:02:29.453Z,30.67
2022-12-01T14:03:38.905Z,30.71
2022-12-01T14:04:42.354Z,30.78
2022-12-01T14:05:56.857Z,30.83
2022-12-01T14:07:21.190Z,30.95
2022-12-01T14:08:37.079Z,30.95
2022-12-01T14:09:41.384Z,31.06
2022-12-01T14:10:59.837Z,31.07
2022-12-01T14:12:06.730Z,31.15
2022-12-01T14:13:13.552Z,31.18
2022-12-01T14:14:25.708Z,31.33
2022-12-01T14:15:40.177Z,31.32
2022-12-01T14:17:01.956Z,31.40
2022-12-01T14:18:32.588Z,31.47
2022-12-01T14:19:47.943Z,31.56
2022-12-01T14:20:51.694Z,31.70
2022-12-01T14:21:54.803Z,31.68
2022-12-01T14:23:16.541Z,31.78
2022-12-01T14:24:31.955Z,31.87
2022-12-01T14:25:35.103Z,31.97
2022-12-01T14:26:45.087Z,32.08
2022-12-01T14:27:51.407Z,32.11
2022-12-01T14:29:03.992Z,32.16
2022-12-01T14:30:45.996Z,32.32
2022-12-01T14:31:52.780Z,32.32
2022-12-01T14:33:32.871Z,32.46
2022-12-01T14:34:37.386Z,32.62
2022-12-01T14:35:40.903Z,32.78
2022-12-01T14:36:51.184Z,32.80
2022-12-01T14:37:55.535Z,32.87
2022-12-01T14:39:02.263Z,32.92
2022-12-01T14:40:14.999Z,33.04
2022-12-01T14:41:24.433Z,33.07
2022-12-01T14:42:35.972Z,33.20
2022-12-01T14:44:00.116Z,33.21
2022-12-01T14:45:05.447Z,33.40
2022-12-01T14:46:11.205Z,33.50
2022-12-01T14:47:24.219Z,33.57
2022-12-01T14:48:36.688Z,33.58
2022-12-01T14:49:52.468Z,33.68
2022-12-01T14:51:11.366Z,33.81
2022-12-01T14:52:20.872Z,33.95
2022-12-01T14:53:27.457Z,33.94
2022-12-01T14:54:46.021Z,34.14
2022-12-01T14:55:58.578Z,34.24
2022-12-01T14:57:06.842Z,34.33
2022-12-01T14:58:21.316Z,34.43
2022-12-01T14:59:26.524Z,34.47
2022-12-01T15:00:30.862Z,34.54
2022-12-01T15:01:36.760Z,34.68
2022-12-01T15:02:43.101Z,34.76
2022-12-01T15:03:52.876Z,34.85
2022-12-01T15:05:13.578Z,34.82
2022-12-01T15:06:25.778Z,34.95
2022-12-01T15:07:29.769Z,35.00
2022-12-01T15:09:10.428Z,35.05
2022-12-01T15:09:43.650Z,35.12
2022-12-01T15:10:56.024Z,35.22
2022-12-01T15:12:02.304Z,35.38
2022-12-01T15:13:28.101Z,35.45
2022-12-01T15:14:37.258Z,35.44
2022-12-01T15:15:43.991Z,35.49
2022-12-01T15:16:47.146Z,35.53
2022-12-01T15:17:51.491Z,35.74
2022-12-01T15:18:54.921Z,35.78
2022-12-01T15:19:58.506Z,35.82
2022-12-01T15:21:07.960Z,35.80
2022-12-01T15:22:16.450Z,35.84
2022-12-01T15:23:21.185Z,35.98
2022-12-01T15:24:26.466Z,35.97
2022-12-01T15:25:33.783Z,35.99
2022-12-01T15:26:40.554Z,36.08
2022-12-01T15:27:44.079Z,36.09
2022-12-01T15:28:47.271Z,36.09
2022-12-01T15:29:51.453Z,36.22
2022-12-01T15:30:55.622Z,36.25
2022-12-01T15:32:05.460Z,36.27
2022-12-01T15:33:26.768Z,36.25
2022-12-01T15:34:38.659Z,36.37
2022-12-01T15:35:43.767Z,36.37
2022-12-01T15:36:47.890Z,36.43
2022-12-01T15:37:52.053Z,36.58
2022-12-01T15:38:56.087Z,36.54
2022-12-01T15:40:54.108Z,36.60
2022-12-01T15:41:31.348Z,36.63
2022-12-01T15:42:31.433Z,36.72
2022-12-01T15:43:38.353Z,36.71
2022-12-01T15:44:41.648Z,36.72
2022-12-01T15:46:00.094Z,36.75
2022-12-01T15:47:40.228Z,36.82
2022-12-01T15:48:44.992Z,36.86
2022-12-01T15:49:49.235Z,36.94
2022-12-01T15:51:05.136Z,37.01
2022-12-01T15:52:10.975Z,37.10
2022-12-01T15:53:20.506Z,37.04
2022-12-01T15:54:26.719Z,37.14
2022-12-01T15:55:35.885Z,37.14
2022-12-01T15:56:41.010Z,37.18
2022-12-01T15:57:46.710Z,37.28
2022-12-01T15:58:51.233Z,37.26
2022-12-01T15:59:56.944Z,37.30
2022-12-01T16:01:20.458Z,37.36
2022-12-01T16:02:32.192Z,37.37
2022-12-01T16:03:55.454Z,37.32
2022-12-01T16:05:08.024Z,37.47
2022-12-01T16:06:12.566Z,37.45
2022-12-01T16:07:15.779Z,37.49
2022-12-01T16:08:22.599Z,37.59
2022-12-01T16:09:37.523Z,37.62
2022-12-01T16:10:40.803Z,37.65
2022-12-01T16:12:04.048Z,37.60
2022-12-01T16:13:36.524Z,37.71
2022-12-01T16:14:58.262Z,37.73
2022-12-01T16:16:03.343Z,37.79
2022-12-01T16:17:10.497Z,37.78
2022-12-01T16:18:26.313Z,37.88
2022-12-01T16:19:32.193Z,37.91
2022-12-01T16:20:41.934Z,37.86
2022-12-01T16:21:48.237Z,37.90
2022-12-01T16:22:58.377Z,38.00
2022-12-01T16:24:04.697Z,37.93
2022-12-01T16:25:11.492Z,37.99
2022-12-01T16:26:15.300Z,38.07
2022-12-01T16:27:27.043Z,38.02
2022-12-01T16:28:35.232Z,38.01
2022-12-01T16:30:02.771Z,38.08
2022-12-01T16:31:11.281Z,38.02
2022-12-01T16:32:20.802Z,38.15
2022-12-01T16:33:23.736Z,38.13
2022-12-01T16:34:45.350Z,38.13
2022-12-01T16:35:33.472Z,38.23
2022-12-01T16:36:36.666Z,38.18
2022-12-01T16:37:39.783Z,38.27
2022-12-01T16:38:42.912Z,38.29
2022-12-01T16:39:46.083Z,38.31
2022-12-01T16:40:54.445Z,38.30
2022-12-01T16:42:00.008Z,38.25
2022-12-01T16:43:03.250Z,38.26
2022-12-01T16:44:27.622Z,38.35
2022-12-01T16:45:14.240Z,38.28
2022-12-01T16:46:17.401Z,38.30
2022-12-01T16:47:23.893Z,38.36
2022-12-01T16:48:27.117Z,38.25
2022-12-01T16:49:30.188Z,38.30
2022-12-01T16:50:33.459Z,38.29
2022-12-01T16:51:54.831Z,38.37
2022-12-01T16:52:45.044Z,38.32
2022-12-01T16:53:51.103Z,38.34
2022-12-01T16:54:53.504Z,38.44
2022-12-01T16:55:59.512Z,38.38
2022-12-01T16:57:02.633Z,38.35
2022-12-01T16:58:05.827Z,38.38
2022-12-01T16:59:08.995Z,38.40
2022-12-01T17:00:13.045Z,38.41
2022-12-01T17:01:16.264Z,38.44
2022-12-01T17:02:19.514Z,38.52
2022-12-01T17:03:25.620Z,38.50
2022-12-01T17:04:28.864Z,38.50
2022-12-01T17:05:32.489Z,38.51
2022-12-01T17:06:37.733Z,38.59
2022-12-01T17:07:41.681Z,38.61
2022-12-01T17:08:45.388Z,38.63
2022-12-01T17:09:48.572Z,38.61
2022-12-01T17:10:52.560Z,38.70
2022-12-01T17:11:56.793Z,38.60
2022-12-01T17:13:00.154Z,38.61
2022-12-01T17:14:03.341Z,38.68
2022-12-01T17:15:07.120Z,38.70
2022-12-01T17:16:15.194Z,38.73
2022-12-01T17:17:15.739Z,38.79
2022-12-01T17:18:20.556Z,38.80
2022-12-01T17:19:23.778Z,38.90
2022-12-01T17:20:26.879Z,38.88
2022-12-01T17:21:30.209Z,38.90
2022-12-01T17:22:33.625Z,39.04
2022-12-01T17:23:37.965Z,38.98
2022-12-01T17:24:41.179Z,39.01
2022-12-01T17:25:44.307Z,39.05
2022-12-01T17:26:47.989Z,39.09
2022-12-01T17:27:51.396Z,39.19
2022-12-01T17:28:54.729Z,39.15
2022-12-01T17:29:58.517Z,39.15
2022-12-01T17:31:02.690Z,39.24
2022-12-01T17:32:08.228Z,39.18
2022-12-01T17:33:11.440Z,39.23